sensor_id;sensor_type;location;lat;lon;timestamp;P1;durP1;ratioP1;P2;durP2;ratioP2
72864;SDS011;61000;48.120;11.548;2023-07-16T00:01:18;8.05;;;5.22;;
72864;SDS011;61000;48.120;11.548;2023-07-16T00:03:45;6.82;;;4.97;;
72864;SDS011;61000;48.120;11.548;2023-07-16T00:06:12;9.75;;;5.38;;
72864;SDS011;61000;48.120;11.548;2023-07-16T00:08:40;6.47;;;4.90;;
72864;SDS011;61000;48.120;11.548;2023-07-16T00:11:07;7.82;;;5.00;;
72864;SDS011;61000;48.120;11.548;2023-07-16T00:13:34;11.13;;;5.25;;
72864;SDS011;61000;48.120;11.548;2023-07-16T00:16:06;10.02;;;4.93;;
72864;SDS011;61000;48.120;11.548;2023-07-16T00:18:33;7.18;;;5.38;;
72864;SDS011;61000;48.120;11.548;2023-07-16T00:21:00;7.20;;;5.18;;
72864;SDS011;61000;48.120;11.548;2023-07-16T00:23:27;8.93;;;5.18;;
72864;SDS011;61000;48.120;11.548;2023-07-16T00:25:55;6.00;;;4.88;;
72864;SDS011;61000;48.120;11.548;2023-07-16T00:28:22;5.65;;;4.88;;
72864;SDS011;61000;48.120;11.548;2023-07-16T00:30:49;10.30;;;5.57;;
72864;SDS011;61000;48.120;11.548;2023-07-16T00:33:16;6.18;;;4.85;;
72864;SDS011;61000;48.120;11.548;2023-07-16T00:35:46;6.72;;;4.55;;
72864;SDS011;61000;48.120;11.548;2023-07-16T00:38:14;6.72;;;5.13;;
72864;SDS011;61000;48.120;11.548;2023-07-16T00:40:41;12.68;;;5.93;;
72864;SDS011;61000;48.120;11.548;2023-07-16T00:43:09;6.15;;;4.78;;
72864;SDS011;61000;48.120;11.548;2023-07-16T00:45:36;9.13;;;5.50;;
72864;SDS011;61000;48.120;11.548;2023-07-16T00:48:06;6.65;;;5.15;;
72864;SDS011;61000;48.120;11.548;2023-07-16T00:50:34;8.98;;;5.20;;
72864;SDS011;61000;48.120;11.548;2023-07-16T00:53:04;7.10;;;5.35;;
72864;SDS011;61000;48.120;11.548;2023-07-16T00:55:32;6.75;;;6.03;;
72864;SDS011;61000;48.120;11.548;2023-07-16T00:58:02;6.60;;;5.10;;
72864;SDS011;61000;48.120;11.548;2023-07-16T01:00:32;11.27;;;5.57;;
72864;SDS011;61000;48.120;11.548;2023-07-16T01:03:00;5.32;;;4.82;;
72864;SDS011;61000;48.120;11.548;2023-07-16T01:05:30;8.20;;;5.60;;
72864;SDS011;61000;48.120;11.548;2023-07-16T01:08:06;7.60;;;5.80;;
72864;SDS011;61000;48.120;11.548;2023-07-16T01:10:36;9.25;;;5.38;;
72864;SDS011;61000;48.120;11.548;2023-07-16T01:13:04;6.03;;;5.28;;
72864;SDS011;61000;48.120;11.548;2023-07-16T01:15:32;7.97;;;6.35;;
72864;SDS011;61000;48.120;11.548;2023-07-16T01:17:59;9.43;;;5.82;;
72864;SDS011;61000;48.120;11.548;2023-07-16T01:20:26;7.32;;;6.00;;
72864;SDS011;61000;48.120;11.548;2023-07-16T01:31:47;10.00;;;6.20;;
72864;SDS011;61000;48.120;11.548;2023-07-16T01:34:15;9.55;;;6.45;;
72864;SDS011;61000;48.120;11.548;2023-07-16T01:36:43;10.05;;;6.15;;
72864;SDS011;61000;48.120;11.548;2023-07-16T01:39:11;12.27;;;7.00;;
72864;SDS011;61000;48.120;11.548;2023-07-16T01:41:37;6.95;;;6.22;;
72864;SDS011;61000;48.120;11.548;2023-07-16T01:44:04;8.02;;;6.35;;
72864;SDS011;61000;48.120;11.548;2023-07-16T01:46:33;7.18;;;6.47;;
72864;SDS011;61000;48.120;11.548;2023-07-16T01:48:59;11.10;;;6.20;;
72864;SDS011;61000;48.120;11.548;2023-07-16T01:51:26;11.25;;;6.97;;
72864;SDS011;61000;48.120;11.548;2023-07-16T01:53:53;10.50;;;6.70;;
72864;SDS011;61000;48.120;11.548;2023-07-16T01:56:20;11.85;;;6.93;;
72864;SDS011;61000;48.120;11.548;2023-07-16T01:58:47;12.45;;;6.78;;
72864;SDS011;61000;48.120;11.548;2023-07-16T02:01:16;10.00;;;6.68;;
72864;SDS011;61000;48.120;11.548;2023-07-16T02:03:49;11.98;;;6.22;;
72864;SDS011;61000;48.120;11.548;2023-07-16T02:06:15;8.45;;;6.47;;
72864;SDS011;61000;48.120;11.548;2023-07-16T02:08:42;10.43;;;6.30;;
72864;SDS011;61000;48.120;11.548;2023-07-16T02:11:09;9.45;;;5.97;;
72864;SDS011;61000;48.120;11.548;2023-07-16T02:13:36;10.18;;;6.28;;
72864;SDS011;61000;48.120;11.548;2023-07-16T02:16:03;8.30;;;6.57;;
72864;SDS011;61000;48.120;11.548;2023-07-16T02:18:30;7.72;;;6.20;;
72864;SDS011;61000;48.120;11.548;2023-07-16T02:20:59;7.75;;;6.13;;
72864;SDS011;61000;48.120;11.548;2023-07-16T02:23:27;13.15;;;6.45;;
72864;SDS011;61000;48.120;11.548;2023-07-16T02:25:54;6.97;;;6.13;;
72864;SDS011;61000;48.120;11.548;2023-07-16T02:28:21;10.48;;;6.15;;
72864;SDS011;61000;48.120;11.548;2023-07-16T02:30:48;10.30;;;6.72;;
72864;SDS011;61000;48.120;11.548;2023-07-16T02:33:15;11.05;;;6.90;;
72864;SDS011;61000;48.120;11.548;2023-07-16T02:35:45;8.40;;;6.18;;
72864;SDS011;61000;48.120;11.548;2023-07-16T02:38:15;11.48;;;6.20;;
72864;SDS011;61000;48.120;11.548;2023-07-16T02:40:42;8.25;;;6.35;;
72864;SDS011;61000;48.120;11.548;2023-07-16T02:43:10;9.95;;;6.93;;
72864;SDS011;61000;48.120;11.548;2023-07-16T02:45:37;8.98;;;7.20;;
72864;SDS011;61000;48.120;11.548;2023-07-16T02:48:05;7.38;;;6.38;;
72864;SDS011;61000;48.120;11.548;2023-07-16T02:50:33;11.25;;;6.60;;
72864;SDS011;61000;48.120;11.548;2023-07-16T02:53:00;6.03;;;5.40;;
72864;SDS011;61000;48.120;11.548;2023-07-16T02:55:29;5.60;;;4.65;;
72864;SDS011;61000;48.120;11.548;2023-07-16T02:57:55;5.38;;;4.88;;
72864;SDS011;61000;48.120;11.548;2023-07-16T03:00:23;9.10;;;5.25;;
72864;SDS011;61000;48.120;11.548;2023-07-16T03:02:50;7.68;;;5.10;;
72864;SDS011;61000;48.120;11.548;2023-07-16T03:05:17;6.47;;;5.45;;
72864;SDS011;61000;48.120;11.548;2023-07-16T03:07:43;9.50;;;5.20;;
72864;SDS011;61000;48.120;11.548;2023-07-16T03:10:10;7.68;;;4.85;;
72864;SDS011;61000;48.120;11.548;2023-07-16T03:12:39;6.88;;;4.75;;
72864;SDS011;61000;48.120;11.548;2023-07-16T03:15:06;5.70;;;4.90;;
72864;SDS011;61000;48.120;11.548;2023-07-16T03:17:34;7.15;;;4.28;;
72864;SDS011;61000;48.120;11.548;2023-07-16T03:20:01;5.53;;;4.78;;
72864;SDS011;61000;48.120;11.548;2023-07-16T03:22:30;4.53;;;4.13;;
72864;SDS011;61000;48.120;11.548;2023-07-16T03:24:57;3.58;;;3.28;;
72864;SDS011;61000;48.120;11.548;2023-07-16T03:27:24;6.07;;;3.72;;
72864;SDS011;61000;48.120;11.548;2023-07-16T03:29:57;4.22;;;3.00;;
72864;SDS011;61000;48.120;11.548;2023-07-16T03:32:24;4.05;;;3.65;;
72864;SDS011;61000;48.120;11.548;2023-07-16T03:34:51;6.82;;;3.60;;
72864;SDS011;61000;48.120;11.548;2023-07-16T03:37:18;4.72;;;3.15;;
72864;SDS011;61000;48.120;11.548;2023-07-16T03:39:47;8.60;;;3.50;;
72864;SDS011;61000;48.120;11.548;2023-07-16T03:42:14;5.57;;;2.97;;
72864;SDS011;61000;48.120;11.548;2023-07-16T03:44:41;3.42;;;3.05;;
72864;SDS011;61000;48.120;11.548;2023-07-16T03:47:11;4.25;;;3.15;;
72864;SDS011;61000;48.120;11.548;2023-07-16T03:49:38;4.22;;;2.90;;
72864;SDS011;61000;48.120;11.548;2023-07-16T03:52:05;3.65;;;3.35;;
72864;SDS011;61000;48.120;11.548;2023-07-16T03:54:32;7.97;;;3.03;;
72864;SDS011;61000;48.120;11.548;2023-07-16T03:56:59;5.13;;;3.03;;
72864;SDS011;61000;48.120;11.548;2023-07-16T03:59:26;7.65;;;3.17;;
72864;SDS011;61000;48.120;11.548;2023-07-16T04:01:53;3.13;;;2.83;;
72864;SDS011;61000;48.120;11.548;2023-07-16T04:04:21;3.25;;;2.95;;
72864;SDS011;61000;48.120;11.548;2023-07-16T04:06:48;5.00;;;3.03;;
72864;SDS011;61000;48.120;11.548;2023-07-16T04:09:15;3.47;;;2.75;;
72864;SDS011;61000;48.120;11.548;2023-07-16T04:11:42;3.35;;;3.05;;
72864;SDS011;61000;48.120;11.548;2023-07-16T04:14:09;4.00;;;3.40;;
72864;SDS011;61000;48.120;11.548;2023-07-16T04:16:36;3.15;;;2.38;;
72864;SDS011;61000;48.120;11.548;2023-07-16T04:19:03;3.25;;;2.70;;
72864;SDS011;61000;48.120;11.548;2023-07-16T04:21:31;5.85;;;3.50;;
72864;SDS011;61000;48.120;11.548;2023-07-16T04:23:58;6.15;;;4.22;;
72864;SDS011;61000;48.120;11.548;2023-07-16T04:26:25;7.05;;;3.90;;
72864;SDS011;61000;48.120;11.548;2023-07-16T04:28:52;5.10;;;2.75;;
72864;SDS011;61000;48.120;11.548;2023-07-16T04:31:19;2.88;;;2.15;;
72864;SDS011;61000;48.120;11.548;2023-07-16T04:33:45;5.00;;;2.03;;
72864;SDS011;61000;48.120;11.548;2023-07-16T04:36:12;3.58;;;2.53;;
72864;SDS011;61000;48.120;11.548;2023-07-16T04:38:40;4.10;;;2.90;;
72864;SDS011;61000;48.120;11.548;2023-07-16T04:41:07;4.22;;;2.67;;
72864;SDS011;61000;48.120;11.548;2023-07-16T04:43:34;3.35;;;2.88;;
72864;SDS011;61000;48.120;11.548;2023-07-16T04:46:01;6.20;;;2.60;;
72864;SDS011;61000;48.120;11.548;2023-07-16T04:48:28;3.30;;;2.58;;
72864;SDS011;61000;48.120;11.548;2023-07-16T04:50:55;5.55;;;3.20;;
72864;SDS011;61000;48.120;11.548;2023-07-16T04:53:22;6.35;;;3.88;;
72864;SDS011;61000;48.120;11.548;2023-07-16T04:55:50;4.22;;;3.28;;
72864;SDS011;61000;48.120;11.548;2023-07-16T04:58:17;4.32;;;3.42;;
72864;SDS011;61000;48.120;11.548;2023-07-16T05:00:44;5.15;;;3.55;;
72864;SDS011;61000;48.120;11.548;2023-07-16T05:03:12;6.53;;;3.95;;
72864;SDS011;61000;48.120;11.548;2023-07-16T05:05:38;4.07;;;3.50;;
72864;SDS011;61000;48.120;11.548;2023-07-16T05:08:05;4.30;;;3.85;;
72864;SDS011;61000;48.120;11.548;2023-07-16T05:10:32;5.82;;;3.95;;
72864;SDS011;61000;48.120;11.548;2023-07-16T05:13:01;4.68;;;3.60;;
72864;SDS011;61000;48.120;11.548;2023-07-16T05:15:28;3.83;;;3.40;;
72864;SDS011;61000;48.120;11.548;2023-07-16T05:17:55;4.70;;;3.20;;
72864;SDS011;61000;48.120;11.548;2023-07-16T05:20:23;6.75;;;3.45;;
72864;SDS011;61000;48.120;11.548;2023-07-16T05:22:50;5.07;;;3.70;;
72864;SDS011;61000;48.120;11.548;2023-07-16T05:25:17;3.53;;;3.15;;
72864;SDS011;61000;48.120;11.548;2023-07-16T05:27:44;3.70;;;3.30;;
72864;SDS011;61000;48.120;11.548;2023-07-16T05:30:12;3.70;;;3.30;;
72864;SDS011;61000;48.120;11.548;2023-07-16T05:32:40;6.55;;;3.20;;
72864;SDS011;61000;48.120;11.548;2023-07-16T05:35:07;5.30;;;3.60;;
72864;SDS011;61000;48.120;11.548;2023-07-16T05:37:34;4.88;;;3.28;;
72864;SDS011;61000;48.120;11.548;2023-07-16T05:40:01;4.07;;;3.30;;
72864;SDS011;61000;48.120;11.548;2023-07-16T05:42:29;5.88;;;3.75;;
72864;SDS011;61000;48.120;11.548;2023-07-16T05:44:55;6.68;;;4.70;;
72864;SDS011;61000;48.120;11.548;2023-07-16T05:47:24;3.42;;;2.80;;
72864;SDS011;61000;48.120;11.548;2023-07-16T05:49:51;4.97;;;2.65;;
72864;SDS011;61000;48.120;11.548;2023-07-16T05:52:17;5.07;;;3.45;;
72864;SDS011;61000;48.120;11.548;2023-07-16T05:54:44;4.45;;;3.20;;
72864;SDS011;61000;48.120;11.548;2023-07-16T05:57:11;4.00;;;2.72;;
72864;SDS011;61000;48.120;11.548;2023-07-16T05:59:38;3.35;;;3.05;;
72864;SDS011;61000;48.120;11.548;2023-07-16T06:02:05;5.60;;;3.08;;
72864;SDS011;61000;48.120;11.548;2023-07-16T06:04:34;3.17;;;2.55;;
72864;SDS011;61000;48.120;11.548;2023-07-16T06:07:01;2.97;;;2.65;;
72864;SDS011;61000;48.120;11.548;2023-07-16T06:09:29;3.15;;;2.63;;
72864;SDS011;61000;48.120;11.548;2023-07-16T06:11:55;4.82;;;2.97;;
72864;SDS011;61000;48.120;11.548;2023-07-16T06:14:22;4.55;;;3.30;;
72864;SDS011;61000;48.120;11.548;2023-07-16T06:16:49;6.10;;;3.22;;
72864;SDS011;61000;48.120;11.548;2023-07-16T06:19:17;4.60;;;2.78;;
72864;SDS011;61000;48.120;11.548;2023-07-16T06:21:45;3.40;;;2.88;;
72864;SDS011;61000;48.120;11.548;2023-07-16T06:24:12;4.15;;;3.30;;
72864;SDS011;61000;48.120;11.548;2023-07-16T06:26:39;4.10;;;3.65;;
72864;SDS011;61000;48.120;11.548;2023-07-16T06:29:06;4.20;;;3.20;;
72864;SDS011;61000;48.120;11.548;2023-07-16T06:31:33;5.07;;;3.55;;
72864;SDS011;61000;48.120;11.548;2023-07-16T06:34:00;4.97;;;3.30;;
72864;SDS011;61000;48.120;11.548;2023-07-16T06:36:27;4.53;;;3.80;;
72864;SDS011;61000;48.120;11.548;2023-07-16T06:38:55;5.03;;;3.83;;
72864;SDS011;61000;48.120;11.548;2023-07-16T06:41:22;3.33;;;3.00;;
72864;SDS011;61000;48.120;11.548;2023-07-16T06:43:49;5.72;;;3.17;;
72864;SDS011;61000;48.120;11.548;2023-07-16T06:46:16;3.67;;;3.38;;
72864;SDS011;61000;48.120;11.548;2023-07-16T06:48:43;4.22;;;3.83;;
72864;SDS011;61000;48.120;11.548;2023-07-16T06:51:09;10.20;;;3.55;;
72864;SDS011;61000;48.120;11.548;2023-07-16T06:53:36;4.88;;;3.13;;
72864;SDS011;61000;48.120;11.548;2023-07-16T06:56:05;3.80;;;2.72;;
72864;SDS011;61000;48.120;11.548;2023-07-16T06:58:32;3.28;;;2.20;;
72864;SDS011;61000;48.120;11.548;2023-07-16T07:00:59;5.63;;;2.30;;
72864;SDS011;61000;48.120;11.548;2023-07-16T07:03:26;2.60;;;2.03;;
72864;SDS011;61000;48.120;11.548;2023-07-16T07:05:53;2.60;;;1.83;;
72864;SDS011;61000;48.120;11.548;2023-07-16T07:08:20;2.28;;;1.73;;
72864;SDS011;61000;48.120;11.548;2023-07-16T07:10:48;2.00;;;1.80;;
72864;SDS011;61000;48.120;11.548;2023-07-16T07:13:16;4.18;;;1.80;;
72864;SDS011;61000;48.120;11.548;2023-07-16T07:15:43;2.00;;;1.77;;
72864;SDS011;61000;48.120;11.548;2023-07-16T07:18:10;2.28;;;1.70;;
72864;SDS011;61000;48.120;11.548;2023-07-16T07:20:37;1.65;;;1.55;;
72864;SDS011;61000;48.120;11.548;2023-07-16T07:23:05;1.67;;;1.40;;
72864;SDS011;61000;48.120;11.548;2023-07-16T07:25:32;1.60;;;1.50;;
72864;SDS011;61000;48.120;11.548;2023-07-16T07:27:59;2.65;;;1.55;;
72864;SDS011;61000;48.120;11.548;2023-07-16T07:30:27;3.50;;;1.95;;
72864;SDS011;61000;48.120;11.548;2023-07-16T07:32:54;3.55;;;1.63;;
72864;SDS011;61000;48.120;11.548;2023-07-16T07:35:21;2.90;;;1.30;;
72864;SDS011;61000;48.120;11.548;2023-07-16T07:37:48;2.38;;;1.58;;
72864;SDS011;61000;48.120;11.548;2023-07-16T07:40:15;1.90;;;1.75;;
72864;SDS011;61000;48.120;11.548;2023-07-16T07:42:42;2.10;;;1.73;;
72864;SDS011;61000;48.120;11.548;2023-07-16T07:45:09;3.95;;;1.60;;
72864;SDS011;61000;48.120;11.548;2023-07-16T07:47:38;1.80;;;1.42;;
72864;SDS011;61000;48.120;11.548;2023-07-16T07:50:05;2.20;;;2.00;;
72864;SDS011;61000;48.120;11.548;2023-07-16T07:52:33;2.15;;;1.90;;
72864;SDS011;61000;48.120;11.548;2023-07-16T07:54:59;2.70;;;1.90;;
72864;SDS011;61000;48.120;11.548;2023-07-16T07:57:27;3.00;;;1.80;;
72864;SDS011;61000;48.120;11.548;2023-07-16T07:59:59;2.25;;;1.30;;
72864;SDS011;61000;48.120;11.548;2023-07-16T08:02:39;3.35;;;1.70;;
72864;SDS011;61000;48.120;11.548;2023-07-16T08:05:07;2.10;;;1.73;;
72864;SDS011;61000;48.120;11.548;2023-07-16T08:07:34;2.38;;;1.92;;
72864;SDS011;61000;48.120;11.548;2023-07-16T08:10:01;2.63;;;1.77;;
72864;SDS011;61000;48.120;11.548;2023-07-16T08:12:28;2.58;;;1.60;;
72864;SDS011;61000;48.120;11.548;2023-07-16T08:14:56;1.92;;;1.70;;
72864;SDS011;61000;48.120;11.548;2023-07-16T08:17:23;1.92;;;1.67;;
72864;SDS011;61000;48.120;11.548;2023-07-16T08:19:51;2.47;;;1.77;;
72864;SDS011;61000;48.120;11.548;2023-07-16T08:22:18;1.60;;;1.50;;
72864;SDS011;61000;48.120;11.548;2023-07-16T08:24:45;2.83;;;1.75;;
72864;SDS011;61000;48.120;11.548;2023-07-16T08:27:16;3.95;;;1.92;;
72864;SDS011;61000;48.120;11.548;2023-07-16T08:29:44;1.52;;;1.42;;
72864;SDS011;61000;48.120;11.548;2023-07-16T08:32:11;2.58;;;1.60;;
72864;SDS011;61000;48.120;11.548;2023-07-16T08:34:38;2.13;;;1.70;;
72864;SDS011;61000;48.120;11.548;2023-07-16T08:37:06;1.60;;;1.42;;
72864;SDS011;61000;48.120;11.548;2023-07-16T08:39:33;1.38;;;1.27;;
72864;SDS011;61000;48.120;11.548;2023-07-16T08:42:00;1.35;;;1.25;;
72864;SDS011;61000;48.120;11.548;2023-07-16T08:44:27;1.67;;;1.58;;
72864;SDS011;61000;48.120;11.548;2023-07-16T08:46:55;1.83;;;1.35;;
72864;SDS011;61000;48.120;11.548;2023-07-16T08:49:22;1.83;;;1.52;;
72864;SDS011;61000;48.120;11.548;2023-07-16T08:51:51;1.95;;;1.80;;
72864;SDS011;61000;48.120;11.548;2023-07-16T08:54:21;1.65;;;1.50;;
72864;SDS011;61000;48.120;11.548;2023-07-16T08:56:50;2.65;;;1.58;;
72864;SDS011;61000;48.120;11.548;2023-07-16T08:59:18;1.65;;;1.52;;
72864;SDS011;61000;48.120;11.548;2023-07-16T09:01:45;2.22;;;1.70;;
72864;SDS011;61000;48.120;11.548;2023-07-16T09:04:13;3.95;;;1.90;;
72864;SDS011;61000;48.120;11.548;2023-07-16T09:06:40;1.58;;;1.48;;
72864;SDS011;61000;48.120;11.548;2023-07-16T09:09:07;3.35;;;1.52;;
72864;SDS011;61000;48.120;11.548;2023-07-16T09:11:35;2.42;;;1.55;;
72864;SDS011;61000;48.120;11.548;2023-07-16T09:14:14;2.88;;;1.83;;
72864;SDS011;61000;48.120;11.548;2023-07-16T09:16:42;1.40;;;1.30;;
72864;SDS011;61000;48.120;11.548;2023-07-16T09:19:09;2.13;;;1.23;;
72864;SDS011;61000;48.120;11.548;2023-07-16T09:21:38;1.20;;;1.10;;
72864;SDS011;61000;48.120;11.548;2023-07-16T09:24:06;1.20;;;0.98;;
72864;SDS011;61000;48.120;11.548;2023-07-16T09:26:37;1.50;;;1.40;;
72864;SDS011;61000;48.120;11.548;2023-07-16T09:29:05;2.95;;;1.58;;
72864;SDS011;61000;48.120;11.548;2023-07-16T09:31:33;3.17;;;1.48;;
72864;SDS011;61000;48.120;11.548;2023-07-16T09:34:00;1.92;;;1.30;;
72864;SDS011;61000;48.120;11.548;2023-07-16T09:36:28;1.35;;;1.25;;
72864;SDS011;61000;48.120;11.548;2023-07-16T09:39:04;1.73;;;1.30;;
72864;SDS011;61000;48.120;11.548;2023-07-16T09:41:34;1.52;;;1.38;;
72864;SDS011;61000;48.120;11.548;2023-07-16T09:44:06;1.52;;;1.42;;
72864;SDS011;61000;48.120;11.548;2023-07-16T09:46:34;2.45;;;1.20;;
72864;SDS011;61000;48.120;11.548;2023-07-16T09:49:04;1.00;;;1.00;;
72864;SDS011;61000;48.120;11.548;2023-07-16T09:51:35;1.17;;;1.08;;
72864;SDS011;61000;48.120;11.548;2023-07-16T09:54:04;1.05;;;0.93;;
72864;SDS011;61000;48.120;11.548;2023-07-16T09:56:41;0.95;;;0.90;;
72864;SDS011;61000;48.120;11.548;2023-07-16T09:59:14;2.00;;;0.93;;
72864;SDS011;61000;48.120;11.548;2023-07-16T10:01:44;1.15;;;1.05;;
72864;SDS011;61000;48.120;11.548;2023-07-16T10:04:17;1.58;;;1.08;;
72864;SDS011;61000;48.120;11.548;2023-07-16T10:07:03;0.80;;;0.80;;
72864;SDS011;61000;48.120;11.548;2023-07-16T10:09:34;1.20;;;1.10;;
72864;SDS011;61000;48.120;11.548;2023-07-16T10:12:12;1.88;;;1.25;;
72864;SDS011;61000;48.120;11.548;2023-07-16T10:14:45;1.40;;;1.30;;
72864;SDS011;61000;48.120;11.548;2023-07-16T10:17:13;1.30;;;1.20;;
72864;SDS011;61000;48.120;11.548;2023-07-16T10:19:51;1.50;;;1.40;;
72864;SDS011;61000;48.120;11.548;2023-07-16T10:22:30;1.50;;;1.15;;
72864;SDS011;61000;48.120;11.548;2023-07-16T10:25:02;1.42;;;1.10;;
72864;SDS011;61000;48.120;11.548;2023-07-16T10:27:32;1.50;;;1.40;;
72864;SDS011;61000;48.120;11.548;2023-07-16T10:30:06;1.30;;;1.20;;
72864;SDS011;61000;48.120;11.548;2023-07-16T10:32:35;3.50;;;1.20;;
72864;SDS011;61000;48.120;11.548;2023-07-16T10:35:02;1.40;;;1.30;;
72864;SDS011;61000;48.120;11.548;2023-07-16T10:37:30;1.20;;;1.10;;
72864;SDS011;61000;48.120;11.548;2023-07-16T10:40:01;1.48;;;1.30;;
72864;SDS011;61000;48.120;11.548;2023-07-16T10:42:30;1.40;;;1.30;;
72864;SDS011;61000;48.120;11.548;2023-07-16T10:44:58;2.15;;;1.63;;
72864;SDS011;61000;48.120;11.548;2023-07-16T10:47:30;3.03;;;1.70;;
72864;SDS011;61000;48.120;11.548;2023-07-16T10:49:59;1.70;;;1.60;;
72864;SDS011;61000;48.120;11.548;2023-07-16T10:52:27;1.80;;;1.50;;
72864;SDS011;61000;48.120;11.548;2023-07-16T10:54:57;2.35;;;1.45;;
72864;SDS011;61000;48.120;11.548;2023-07-16T10:57:24;1.40;;;1.30;;
72864;SDS011;61000;48.120;11.548;2023-07-16T10:59:52;1.70;;;1.25;;
72864;SDS011;61000;48.120;11.548;2023-07-16T11:02:22;1.60;;;1.50;;
72864;SDS011;61000;48.120;11.548;2023-07-16T11:04:53;2.15;;;1.67;;
72864;SDS011;61000;48.120;11.548;2023-07-16T11:07:26;1.60;;;1.50;;
72864;SDS011;61000;48.120;11.548;2023-07-16T11:09:54;2.88;;;1.90;;
72864;SDS011;61000;48.120;11.548;2023-07-16T11:12:23;1.77;;;1.42;;
72864;SDS011;61000;48.120;11.548;2023-07-16T11:14:51;3.10;;;1.60;;
72864;SDS011;61000;48.120;11.548;2023-07-16T11:17:19;1.50;;;1.40;;
72864;SDS011;61000;48.120;11.548;2023-07-16T11:19:48;1.58;;;1.48;;
72864;SDS011;61000;48.120;11.548;2023-07-16T11:22:18;2.03;;;1.50;;
72864;SDS011;61000;48.120;11.548;2023-07-16T11:24:46;1.85;;;1.58;;
72864;SDS011;61000;48.120;11.548;2023-07-16T11:27:13;2.13;;;1.45;;
72864;SDS011;61000;48.120;11.548;2023-07-16T11:29:44;2.83;;;1.50;;
72864;SDS011;61000;48.120;11.548;2023-07-16T11:32:13;1.70;;;1.60;;
72864;SDS011;61000;48.120;11.548;2023-07-16T11:34:51;2.67;;;1.73;;
72864;SDS011;61000;48.120;11.548;2023-07-16T11:37:20;1.88;;;1.77;;
72864;SDS011;61000;48.120;11.548;2023-07-16T11:39:48;2.22;;;1.90;;
72864;SDS011;61000;48.120;11.548;2023-07-16T11:42:18;4.20;;;2.22;;
72864;SDS011;61000;48.120;11.548;2023-07-16T11:44:49;2.00;;;1.80;;
72864;SDS011;61000;48.120;11.548;2023-07-16T11:47:17;2.45;;;1.75;;
72864;SDS011;61000;48.120;11.548;2023-07-16T11:49:44;2.28;;;2.00;;
72864;SDS011;61000;48.120;11.548;2023-07-16T11:52:11;3.22;;;1.50;;
72864;SDS011;61000;48.120;11.548;2023-07-16T11:54:40;2.40;;;1.88;;
72864;SDS011;61000;48.120;11.548;2023-07-16T11:57:06;2.13;;;1.63;;
72864;SDS011;61000;48.120;11.548;2023-07-16T11:59:34;1.67;;;1.58;;
72864;SDS011;61000;48.120;11.548;2023-07-16T12:02:01;1.70;;;1.60;;
72864;SDS011;61000;48.120;11.548;2023-07-16T12:04:29;2.42;;;1.83;;
72864;SDS011;61000;48.120;11.548;2023-07-16T12:06:56;3.80;;;1.77;;
72864;SDS011;61000;48.120;11.548;2023-07-16T12:09:23;1.88;;;1.67;;
72864;SDS011;61000;48.120;11.548;2023-07-16T12:11:52;2.00;;;1.88;;
72864;SDS011;61000;48.120;11.548;2023-07-16T12:14:19;3.53;;;1.90;;
72864;SDS011;61000;48.120;11.548;2023-07-16T12:16:46;2.92;;;1.90;;
72864;SDS011;61000;48.120;11.548;2023-07-16T12:19:12;3.08;;;1.95;;
72864;SDS011;61000;48.120;11.548;2023-07-16T12:21:40;4.63;;;1.83;;
72864;SDS011;61000;48.120;11.548;2023-07-16T12:24:08;1.63;;;1.52;;
72864;SDS011;61000;48.120;11.548;2023-07-16T12:26:37;4.00;;;2.00;;
72864;SDS011;61000;48.120;11.548;2023-07-16T12:29:09;1.70;;;1.60;;
72864;SDS011;61000;48.120;11.548;2023-07-16T12:31:36;2.15;;;1.83;;
72864;SDS011;61000;48.120;11.548;2023-07-16T12:34:08;2.10;;;1.90;;
72864;SDS011;61000;48.120;11.548;2023-07-16T12:36:35;3.28;;;1.75;;
72864;SDS011;61000;48.120;11.548;2023-07-16T12:39:02;3.58;;;1.80;;
72864;SDS011;61000;48.120;11.548;2023-07-16T12:41:29;2.47;;;2.20;;
72864;SDS011;61000;48.120;11.548;2023-07-16T12:43:56;2.47;;;1.75;;
72864;SDS011;61000;48.120;11.548;2023-07-16T12:46:24;2.25;;;1.92;;
72864;SDS011;61000;48.120;11.548;2023-07-16T12:48:51;2.33;;;1.95;;
72864;SDS011;61000;48.120;11.548;2023-07-16T12:51:18;2.70;;;1.80;;
72864;SDS011;61000;48.120;11.548;2023-07-16T12:53:45;1.92;;;1.77;;
72864;SDS011;61000;48.120;11.548;2023-07-16T12:56:12;1.90;;;1.70;;
72864;SDS011;61000;48.120;11.548;2023-07-16T12:58:39;2.40;;;2.17;;
72864;SDS011;61000;48.120;11.548;2023-07-16T13:01:08;2.47;;;1.83;;
72864;SDS011;61000;48.120;11.548;2023-07-16T13:03:39;2.10;;;1.83;;
72864;SDS011;61000;48.120;11.548;2023-07-16T13:06:07;1.95;;;1.85;;
72864;SDS011;61000;48.120;11.548;2023-07-16T13:08:36;3.38;;;2.30;;
72864;SDS011;61000;48.120;11.548;2023-07-16T13:11:05;2.60;;;1.95;;
72864;SDS011;61000;48.120;11.548;2023-07-16T13:13:36;3.75;;;1.98;;
72864;SDS011;61000;48.120;11.548;2023-07-16T13:16:05;3.10;;;2.22;;
72864;SDS011;61000;48.120;11.548;2023-07-16T13:18:34;2.15;;;1.90;;
72864;SDS011;61000;48.120;11.548;2023-07-16T13:21:08;2.53;;;1.95;;
72864;SDS011;61000;48.120;11.548;2023-07-16T13:23:43;4.80;;;2.35;;
72864;SDS011;61000;48.120;11.548;2023-07-16T13:26:11;2.30;;;2.10;;
72864;SDS011;61000;48.120;11.548;2023-07-16T13:28:39;3.78;;;2.20;;
72864;SDS011;61000;48.120;11.548;2023-07-16T13:31:05;2.67;;;2.22;;
72864;SDS011;61000;48.120;11.548;2023-07-16T13:33:32;2.28;;;2.00;;
72864;SDS011;61000;48.120;11.548;2023-07-16T13:36:06;2.28;;;1.98;;
72864;SDS011;61000;48.120;11.548;2023-07-16T13:38:33;2.38;;;1.90;;
72864;SDS011;61000;48.120;11.548;2023-07-16T13:41:00;2.17;;;2.08;;
72864;SDS011;61000;48.120;11.548;2023-07-16T13:43:26;2.30;;;2.05;;
72864;SDS011;61000;48.120;11.548;2023-07-16T13:45:53;2.03;;;1.80;;
72864;SDS011;61000;48.120;11.548;2023-07-16T13:48:29;2.20;;;2.00;;
72864;SDS011;61000;48.120;11.548;2023-07-16T13:51:07;1.85;;;1.75;;
72864;SDS011;61000;48.120;11.548;2023-07-16T13:53:37;3.10;;;2.00;;
72864;SDS011;61000;48.120;11.548;2023-07-16T13:56:04;2.45;;;2.10;;
72864;SDS011;61000;48.120;11.548;2023-07-16T13:58:31;2.28;;;2.08;;
72864;SDS011;61000;48.120;11.548;2023-07-16T14:00:58;2.33;;;2.13;;
72864;SDS011;61000;48.120;11.548;2023-07-16T14:03:25;2.08;;;1.85;;
72864;SDS011;61000;48.120;11.548;2023-07-16T14:05:51;2.20;;;2.00;;
72864;SDS011;61000;48.120;11.548;2023-07-16T14:08:20;3.65;;;2.20;;
72864;SDS011;61000;48.120;11.548;2023-07-16T14:10:48;2.58;;;1.88;;
72864;SDS011;61000;48.120;11.548;2023-07-16T14:13:15;2.15;;;1.95;;
72864;SDS011;61000;48.120;11.548;2023-07-16T14:15:42;2.17;;;1.98;;
72864;SDS011;61000;48.120;11.548;2023-07-16T14:18:09;3.00;;;2.45;;
72864;SDS011;61000;48.120;11.548;2023-07-16T14:20:36;2.30;;;2.10;;
72864;SDS011;61000;48.120;11.548;2023-07-16T14:23:03;4.32;;;2.17;;
72864;SDS011;61000;48.120;11.548;2023-07-16T14:25:32;2.10;;;1.90;;
72864;SDS011;61000;48.120;11.548;2023-07-16T14:27:59;3.17;;;2.10;;
72864;SDS011;61000;48.120;11.548;2023-07-16T14:30:26;4.95;;;1.95;;
72864;SDS011;61000;48.120;11.548;2023-07-16T14:32:53;2.40;;;2.10;;
72864;SDS011;61000;48.120;11.548;2023-07-16T14:35:19;3.72;;;2.55;;
72864;SDS011;61000;48.120;11.548;2023-07-16T14:37:47;2.50;;;2.30;;
72864;SDS011;61000;48.120;11.548;2023-07-16T14:40:14;3.17;;;2.25;;
72864;SDS011;61000;48.120;11.548;2023-07-16T14:42:42;2.35;;;2.00;;
72864;SDS011;61000;48.120;11.548;2023-07-16T14:45:09;3.75;;;2.15;;
72864;SDS011;61000;48.120;11.548;2023-07-16T14:47:36;2.63;;;2.42;;